sensor_id;sensor_type;location;lat;lon;timestamp;P1;durP1;ratioP1;P2;durP2;ratioP2
10963;SDS011;5534;48.784;9.190;2022-11-20T00:01:17;7.27;;;5.70;;
10963;SDS011;5534;48.784;9.190;2022-11-20T00:03:47;7.20;;;5.03;;
10963;SDS011;5534;48.784;9.190;2022-11-20T00:06:14;7.10;;;5.33;;
10963;SDS011;5534;48.784;9.190;2022-11-20T00:08:42;7.77;;;5.70;;
10963;SDS011;5534;48.784;9.190;2022-11-20T00:11:09;8.73;;;5.00;;
10963;SDS011;5534;48.784;9.190;2022-11-20T00:13:40;7.67;;;5.70;;
10963;SDS011;5534;48.784;9.190;2022-11-20T00:16:06;9.83;;;6.03;;
10963;SDS011;5534;48.784;9.190;2022-11-20T00:18:33;7.63;;;5.43;;
10963;SDS011;5534;48.784;9.190;2022-11-20T00:21:06;7.13;;;5.53;;
10963;SDS011;5534;48.784;9.190;2022-11-20T00:23:35;7.33;;;5.60;;
10963;SDS011;5534;48.784;9.190;2022-11-20T00:26:02;9.93;;;5.80;;
10963;SDS011;5534;48.784;9.190;2022-11-20T00:28:29;9.43;;;6.10;;
10963;SDS011;5534;48.784;9.190;2022-11-20T00:31:02;10.00;;;6.57;;
10963;SDS011;5534;48.784;9.190;2022-11-20T00:33:35;9.47;;;6.00;;
10963;SDS011;5534;48.784;9.190;2022-11-20T00:36:02;9.23;;;6.13;;
10963;SDS011;5534;48.784;9.190;2022-11-20T00:38:30;7.30;;;5.30;;
10963;SDS011;5534;48.784;9.190;2022-11-20T00:41:01;11.17;;;5.60;;
10963;SDS011;5534;48.784;9.190;2022-11-20T00:43:28;8.87;;;6.00;;
10963;SDS011;5534;48.784;9.190;2022-11-20T00:45:58;7.67;;;5.60;;
10963;SDS011;5534;48.784;9.190;2022-11-20T00:48:24;6.33;;;4.80;;
10963;SDS011;5534;48.784;9.190;2022-11-20T00:50:49;8.47;;;5.10;;
10963;SDS011;5534;48.784;9.190;2022-11-20T00:53:15;7.67;;;5.07;;
10963;SDS011;5534;48.784;9.190;2022-11-20T00:55:41;7.57;;;4.73;;
10963;SDS011;5534;48.784;9.190;2022-11-20T00:58:07;4.63;;;3.33;;
10963;SDS011;5534;48.784;9.190;2022-11-20T01:00:32;4.53;;;2.70;;
10963;SDS011;5534;48.784;9.190;2022-11-20T01:02:59;3.17;;;2.50;;
10963;SDS011;5534;48.784;9.190;2022-11-20T01:05:24;3.63;;;2.70;;
10963;SDS011;5534;48.784;9.190;2022-11-20T01:07:50;3.13;;;2.40;;
10963;SDS011;5534;48.784;9.190;2022-11-20T01:10:16;4.60;;;3.20;;
10963;SDS011;5534;48.784;9.190;2022-11-20T01:12:42;2.97;;;2.30;;
10963;SDS011;5534;48.784;9.190;2022-11-20T01:15:08;3.10;;;2.60;;
10963;SDS011;5534;48.784;9.190;2022-11-20T01:17:34;4.43;;;2.30;;
10963;SDS011;5534;48.784;9.190;2022-11-20T01:19:59;4.23;;;2.80;;
10963;SDS011;5534;48.784;9.190;2022-11-20T01:22:25;3.77;;;2.97;;
10963;SDS011;5534;48.784;9.190;2022-11-20T01:24:51;4.77;;;2.17;;
10963;SDS011;5534;48.784;9.190;2022-11-20T01:27:17;2.40;;;1.77;;
10963;SDS011;5534;48.784;9.190;2022-11-20T01:29:42;2.67;;;2.20;;
10963;SDS011;5534;48.784;9.190;2022-11-20T01:32:08;3.23;;;2.17;;
10963;SDS011;5534;48.784;9.190;2022-11-20T01:34:34;3.47;;;2.20;;
10963;SDS011;5534;48.784;9.190;2022-11-20T01:37:00;3.47;;;2.33;;
10963;SDS011;5534;48.784;9.190;2022-11-20T01:39:25;2.60;;;1.87;;
10963;SDS011;5534;48.784;9.190;2022-11-20T01:41:52;2.90;;;2.20;;
10963;SDS011;5534;48.784;9.190;2022-11-20T01:47:57;2.23;;;2.03;;
10963;SDS011;5534;48.784;9.190;2022-11-20T01:50:09;5.57;;;2.37;;
10963;SDS011;5534;48.784;9.190;2022-11-20T01:52:49;2.10;;;1.77;;
10963;SDS011;5534;48.784;9.190;2022-11-20T01:55:22;2.20;;;1.90;;
10963;SDS011;5534;48.784;9.190;2022-11-20T01:57:51;2.37;;;1.60;;
10963;SDS011;5534;48.784;9.190;2022-11-20T02:00:18;3.53;;;1.47;;
10963;SDS011;5534;48.784;9.190;2022-11-20T02:02:46;2.10;;;1.73;;
10963;SDS011;5534;48.784;9.190;2022-11-20T02:07:59;2.27;;;1.90;;
10963;SDS011;5534;48.784;9.190;2022-11-20T02:10:27;2.03;;;1.63;;
10963;SDS011;5534;48.784;9.190;2022-11-20T02:12:54;2.27;;;2.03;;
10963;SDS011;5534;48.784;9.190;2022-11-20T02:15:39;2.27;;;1.57;;
10963;SDS011;5534;48.784;9.190;2022-11-20T02:18:05;3.33;;;1.70;;
10963;SDS011;5534;48.784;9.190;2022-11-20T02:20:32;2.33;;;1.63;;
10963;SDS011;5534;48.784;9.190;2022-11-20T02:25:44;2.20;;;1.93;;
10963;SDS011;5534;48.784;9.190;2022-11-20T02:28:12;3.10;;;1.63;;
10963;SDS011;5534;48.784;9.190;2022-11-20T02:30:40;2.40;;;1.70;;
10963;SDS011;5534;48.784;9.190;2022-11-20T02:33:05;2.47;;;1.83;;
10963;SDS011;5534;48.784;9.190;2022-11-20T02:38:01;4.50;;;2.07;;
10963;SDS011;5534;48.784;9.190;2022-11-20T02:40:27;3.43;;;2.30;;
10963;SDS011;5534;48.784;9.190;2022-11-20T02:42:54;2.37;;;2.00;;
10963;SDS011;5534;48.784;9.190;2022-11-20T02:45:21;3.30;;;2.10;;
10963;SDS011;5534;48.784;9.190;2022-11-20T02:47:48;2.80;;;1.80;;
10963;SDS011;5534;48.784;9.190;2022-11-20T02:50:14;2.73;;;1.97;;
10963;SDS011;5534;48.784;9.190;2022-11-20T02:52:39;4.03;;;2.23;;
10963;SDS011;5534;48.784;9.190;2022-11-20T02:55:07;3.70;;;1.87;;
10963;SDS011;5534;48.784;9.190;2022-11-20T02:57:33;2.23;;;1.90;;
10963;SDS011;5534;48.784;9.190;2022-11-20T02:59:59;1.50;;;1.40;;
10963;SDS011;5534;48.784;9.190;2022-11-20T03:02:25;2.67;;;1.57;;
10963;SDS011;5534;48.784;9.190;2022-11-20T03:04:54;2.73;;;1.60;;
10963;SDS011;5534;48.784;9.190;2022-11-20T03:07:20;2.50;;;1.83;;
10963;SDS011;5534;48.784;9.190;2022-11-20T03:09:45;1.83;;;1.57;;
10963;SDS011;5534;48.784;9.190;2022-11-20T03:12:11;2.97;;;1.70;;
10963;SDS011;5534;48.784;9.190;2022-11-20T03:14:37;1.83;;;1.60;;
10963;SDS011;5534;48.784;9.190;2022-11-20T03:17:02;2.57;;;1.60;;
10963;SDS011;5534;48.784;9.190;2022-11-20T03:19:28;3.33;;;1.80;;
10963;SDS011;5534;48.784;9.190;2022-11-20T03:21:54;2.43;;;1.70;;
10963;SDS011;5534;48.784;9.190;2022-11-20T03:24:20;2.00;;;1.60;;
10963;SDS011;5534;48.784;9.190;2022-11-20T03:26:46;3.07;;;1.67;;
10963;SDS011;5534;48.784;9.190;2022-11-20T03:29:12;3.47;;;1.60;;
10963;SDS011;5534;48.784;9.190;2022-11-20T03:31:38;2.00;;;1.77;;
10963;SDS011;5534;48.784;9.190;2022-11-20T03:34:05;2.60;;;2.10;;
10963;SDS011;5534;48.784;9.190;2022-11-20T03:36:32;2.20;;;1.87;;
10963;SDS011;5534;48.784;9.190;2022-11-20T03:38:58;3.60;;;2.00;;
10963;SDS011;5534;48.784;9.190;2022-11-20T03:41:25;4.30;;;1.80;;
10963;SDS011;5534;48.784;9.190;2022-11-20T03:43:53;3.83;;;2.00;;
10963;SDS011;5534;48.784;9.190;2022-11-20T03:46:19;2.53;;;2.07;;
10963;SDS011;5534;48.784;9.190;2022-11-20T03:48:45;6.17;;;2.27;;
10963;SDS011;5534;48.784;9.190;2022-11-20T03:51:30;4.37;;;2.20;;
10963;SDS011;5534;48.784;9.190;2022-11-20T03:53:59;3.70;;;1.80;;
10963;SDS011;5534;48.784;9.190;2022-11-20T03:56:28;2.73;;;2.30;;
10963;SDS011;5534;48.784;9.190;2022-11-20T03:58:55;4.10;;;2.67;;
10963;SDS011;5534;48.784;9.190;2022-11-20T04:01:21;2.93;;;2.23;;
10963;SDS011;5534;48.784;9.190;2022-11-20T04:03:49;8.03;;;2.27;;
10963;SDS011;5534;48.784;9.190;2022-11-20T04:06:18;3.30;;;2.10;;
10963;SDS011;5534;48.784;9.190;2022-11-20T04:08:48;2.20;;;1.90;;
10963;SDS011;5534;48.784;9.190;2022-11-20T04:11:15;2.00;;;1.80;;
10963;SDS011;5534;48.784;9.190;2022-11-20T04:13:45;3.03;;;2.13;;
10963;SDS011;5534;48.784;9.190;2022-11-20T04:16:12;2.80;;;2.23;;
10963;SDS011;5534;48.784;9.190;2022-11-20T04:18:38;2.70;;;1.93;;
10963;SDS011;5534;48.784;9.190;2022-11-20T04:21:04;4.33;;;2.40;;
10963;SDS011;5534;48.784;9.190;2022-11-20T04:23:31;2.87;;;2.30;;
10963;SDS011;5534;48.784;9.190;2022-11-20T04:26:00;2.83;;;1.93;;
10963;SDS011;5534;48.784;9.190;2022-11-20T04:28:34;3.40;;;2.30;;
10963;SDS011;5534;48.784;9.190;2022-11-20T04:31:07;2.93;;;1.70;;
10963;SDS011;5534;48.784;9.190;2022-11-20T04:33:35;2.17;;;1.63;;
10963;SDS011;5534;48.784;9.190;2022-11-20T04:36:18;2.77;;;2.07;;
10963;SDS011;5534;48.784;9.190;2022-11-20T04:38:45;2.50;;;2.00;;
10963;SDS011;5534;48.784;9.190;2022-11-20T04:41:15;5.73;;;2.30;;
10963;SDS011;5534;48.784;9.190;2022-11-20T04:43:45;3.10;;;1.70;;
10963;SDS011;5534;48.784;9.190;2022-11-20T04:46:13;2.97;;;2.10;;
10963;SDS011;5534;48.784;9.190;2022-11-20T04:48:41;2.70;;;1.90;;
10963;SDS011;5534;48.784;9.190;2022-11-20T04:51:07;3.47;;;1.90;;
10963;SDS011;5534;48.784;9.190;2022-11-20T04:53:33;2.20;;;1.90;;
10963;SDS011;5534;48.784;9.190;2022-11-20T04:56:02;2.03;;;1.77;;
10963;SDS011;5534;48.784;9.190;2022-11-20T04:58:29;2.13;;;1.60;;
10963;SDS011;5534;48.784;9.190;2022-11-20T05:01:06;3.30;;;2.03;;
10963;SDS011;5534;48.784;9.190;2022-11-20T05:03:34;1.87;;;1.70;;
10963;SDS011;5534;48.784;9.190;2022-11-20T05:06:01;2.33;;;1.73;;
10963;SDS011;5534;48.784;9.190;2022-11-20T05:08:28;2.70;;;1.90;;
10963;SDS011;5534;48.784;9.190;2022-11-20T05:10:59;2.03;;;1.83;;
10963;SDS011;5534;48.784;9.190;2022-11-20T05:13:29;2.87;;;2.13;;
10963;SDS011;5534;48.784;9.190;2022-11-20T05:15:55;2.30;;;1.80;;
10963;SDS011;5534;48.784;9.190;2022-11-20T05:18:21;2.40;;;1.90;;
10963;SDS011;5534;48.784;9.190;2022-11-20T05:20:54;3.67;;;1.90;;
10963;SDS011;5534;48.784;9.190;2022-11-20T05:23:20;2.37;;;2.00;;
10963;SDS011;5534;48.784;9.190;2022-11-20T05:25:46;4.20;;;2.00;;
10963;SDS011;5534;48.784;9.190;2022-11-20T05:28:11;2.00;;;1.50;;
10963;SDS011;5534;48.784;9.190;2022-11-20T05:30:37;2.33;;;1.80;;
10963;SDS011;5534;48.784;9.190;2022-11-20T05:33:03;3.10;;;2.00;;
10963;SDS011;5534;48.784;9.190;2022-11-20T05:35:28;2.37;;;1.87;;
10963;SDS011;5534;48.784;9.190;2022-11-20T05:37:54;2.73;;;1.80;;
10963;SDS011;5534;48.784;9.190;2022-11-20T05:40:20;5.87;;;1.80;;
10963;SDS011;5534;48.784;9.190;2022-11-20T05:42:45;3.00;;;1.50;;
10963;SDS011;5534;48.784;9.190;2022-11-20T05:45:11;2.27;;;1.60;;
10963;SDS011;5534;48.784;9.190;2022-11-20T05:47:37;2.77;;;1.73;;
10963;SDS011;5534;48.784;9.190;2022-11-20T05:50:03;2.10;;;1.80;;
10963;SDS011;5534;48.784;9.190;2022-11-20T05:52:29;3.07;;;2.07;;
10963;SDS011;5534;48.784;9.190;2022-11-20T05:54:55;2.33;;;1.87;;
10963;SDS011;5534;48.784;9.190;2022-11-20T05:57:21;1.90;;;1.60;;
10963;SDS011;5534;48.784;9.190;2022-11-20T05:59:47;2.37;;;1.90;;
10963;SDS011;5534;48.784;9.190;2022-11-20T06:02:13;2.93;;;2.13;;
10963;SDS011;5534;48.784;9.190;2022-11-20T06:04:39;1.97;;;1.63;;
10963;SDS011;5534;48.784;9.190;2022-11-20T06:07:05;1.87;;;1.37;;
10963;SDS011;5534;48.784;9.190;2022-11-20T06:09:31;2.10;;;1.77;;
10963;SDS011;5534;48.784;9.190;2022-11-20T06:11:57;1.90;;;1.70;;
10963;SDS011;5534;48.784;9.190;2022-11-20T06:14:23;2.13;;;1.60;;
10963;SDS011;5534;48.784;9.190;2022-11-20T06:16:48;2.73;;;1.80;;
10963;SDS011;5534;48.784;9.190;2022-11-20T06:19:14;1.67;;;1.50;;
10963;SDS011;5534;48.784;9.190;2022-11-20T06:21:40;2.07;;;1.40;;
10963;SDS011;5534;48.784;9.190;2022-11-20T06:24:06;2.53;;;2.03;;
10963;SDS011;5534;48.784;9.190;2022-11-20T06:26:33;2.47;;;1.67;;
10963;SDS011;5534;48.784;9.190;2022-11-20T06:28:59;2.77;;;1.47;;
10963;SDS011;5534;48.784;9.190;2022-11-20T06:31:25;1.60;;;1.30;;
10963;SDS011;5534;48.784;9.190;2022-11-20T06:33:51;3.07;;;1.80;;
10963;SDS011;5534;48.784;9.190;2022-11-20T06:36:19;3.63;;;1.77;;
10963;SDS011;5534;48.784;9.190;2022-11-20T06:38:46;4.03;;;1.60;;
10963;SDS011;5534;48.784;9.190;2022-11-20T06:41:13;2.40;;;1.37;;
10963;SDS011;5534;48.784;9.190;2022-11-20T06:43:40;2.43;;;1.60;;
10963;SDS011;5534;48.784;9.190;2022-11-20T06:46:06;2.63;;;1.80;;
10963;SDS011;5534;48.784;9.190;2022-11-20T06:48:37;2.43;;;1.50;;
10963;SDS011;5534;48.784;9.190;2022-11-20T06:51:04;2.50;;;1.53;;
10963;SDS011;5534;48.784;9.190;2022-11-20T06:53:32;3.03;;;1.27;;
10963;SDS011;5534;48.784;9.190;2022-11-20T06:55:58;1.83;;;1.47;;
10963;SDS011;5534;48.784;9.190;2022-11-20T06:58:26;1.73;;;1.10;;
10963;SDS011;5534;48.784;9.190;2022-11-20T07:00:53;2.70;;;1.43;;
10963;SDS011;5534;48.784;9.190;2022-11-20T07:03:19;2.10;;;1.40;;
10963;SDS011;5534;48.784;9.190;2022-11-20T07:05:45;2.57;;;1.50;;
10963;SDS011;5534;48.784;9.190;2022-11-20T07:08:11;2.20;;;1.70;;
10963;SDS011;5534;48.784;9.190;2022-11-20T07:10:37;3.07;;;1.60;;
10963;SDS011;5534;48.784;9.190;2022-11-20T07:13:03;1.60;;;1.20;;
10963;SDS011;5534;48.784;9.190;2022-11-20T07:15:29;1.70;;;1.50;;
10963;SDS011;5534;48.784;9.190;2022-11-20T07:17:57;2.90;;;1.27;;
10963;SDS011;5534;48.784;9.190;2022-11-20T07:20:24;2.27;;;1.50;;
10963;SDS011;5534;48.784;9.190;2022-11-20T07:22:56;2.07;;;1.50;;
10963;SDS011;5534;48.784;9.190;2022-11-20T07:25:23;1.67;;;1.27;;
10963;SDS011;5534;48.784;9.190;2022-11-20T07:27:49;1.50;;;1.30;;
10963;SDS011;5534;48.784;9.190;2022-11-20T07:30:16;1.70;;;1.43;;
10963;SDS011;5534;48.784;9.190;2022-11-20T07:32:42;2.10;;;1.20;;
10963;SDS011;5534;48.784;9.190;2022-11-20T07:35:10;2.03;;;1.57;;
10963;SDS011;5534;48.784;9.190;2022-11-20T07:37:36;2.40;;;1.60;;
10963;SDS011;5534;48.784;9.190;2022-11-20T07:40:02;1.67;;;1.50;;
10963;SDS011;5534;48.784;9.190;2022-11-20T07:42:28;1.50;;;1.40;;
10963;SDS011;5534;48.784;9.190;2022-11-20T07:44:54;1.63;;;1.37;;
10963;SDS011;5534;48.784;9.190;2022-11-20T07:47:20;2.80;;;1.60;;
10963;SDS011;5534;48.784;9.190;2022-11-20T07:49:46;1.97;;;1.30;;
10963;SDS011;5534;48.784;9.190;2022-11-20T07:52:11;2.77;;;1.50;;
10963;SDS011;5534;48.784;9.190;2022-11-20T07:54:37;2.00;;;1.50;;
10963;SDS011;5534;48.784;9.190;2022-11-20T07:57:03;2.03;;;1.27;;
10963;SDS011;5534;48.784;9.190;2022-11-20T07:59:28;1.40;;;1.30;;
10963;SDS011;5534;48.784;9.190;2022-11-20T08:01:54;1.30;;;1.20;;
10963;SDS011;5534;48.784;9.190;2022-11-20T08:04:20;2.97;;;1.63;;
10963;SDS011;5534;48.784;9.190;2022-11-20T08:06:46;1.40;;;1.30;;
10963;SDS011;5534;48.784;9.190;2022-11-20T08:09:12;1.50;;;1.20;;
10963;SDS011;5534;48.784;9.190;2022-11-20T08:11:38;1.43;;;1.30;;
10963;SDS011;5534;48.784;9.190;2022-11-20T08:14:22;1.47;;;1.10;;
10963;SDS011;5534;48.784;9.190;2022-11-20T08:16:51;2.03;;;1.40;;
10963;SDS011;5534;48.784;9.190;2022-11-20T08:19:17;1.50;;;1.23;;
10963;SDS011;5534;48.784;9.190;2022-11-20T08:21:44;2.03;;;1.10;;
10963;SDS011;5534;48.784;9.190;2022-11-20T08:24:10;3.30;;;1.40;;
10963;SDS011;5534;48.784;9.190;2022-11-20T08:26:36;1.90;;;1.27;;
10963;SDS011;5534;48.784;9.190;2022-11-20T08:29:03;1.80;;;1.30;;
10963;SDS011;5534;48.784;9.190;2022-11-20T08:31:29;1.40;;;1.17;;
10963;SDS011;5534;48.784;9.190;2022-11-20T08:33:57;2.77;;;1.17;;
10963;SDS011;5534;48.784;9.190;2022-11-20T08:36:23;1.53;;;1.30;;
10963;SDS011;5534;48.784;9.190;2022-11-20T08:38:50;1.17;;;1.07;;
10963;SDS011;5534;48.784;9.190;2022-11-20T08:41:21;2.37;;;1.20;;
10963;SDS011;5534;48.784;9.190;2022-11-20T08:43:49;0.97;;;0.90;;
10963;SDS011;5534;48.784;9.190;2022-11-20T08:46:15;1.30;;;1.20;;
10963;SDS011;5534;48.784;9.190;2022-11-20T08:48:42;1.10;;;1.00;;
10963;SDS011;5534;48.784;9.190;2022-11-20T08:51:08;3.03;;;1.10;;
10963;SDS011;5534;48.784;9.190;2022-11-20T08:53:34;1.27;;;0.93;;
10963;SDS011;5534;48.784;9.190;2022-11-20T08:56:00;1.60;;;1.20;;
10963;SDS011;5534;48.784;9.190;2022-11-20T08:58:26;1.67;;;1.13;;
10963;SDS011;5534;48.784;9.190;2022-11-20T09:00:52;1.33;;;0.87;;
10963;SDS011;5534;48.784;9.190;2022-11-20T09:03:18;1.37;;;1.00;;
10963;SDS011;5534;48.784;9.190;2022-11-20T09:05:44;1.00;;;0.90;;
10963;SDS011;5534;48.784;9.190;2022-11-20T09:08:10;1.97;;;0.87;;
10963;SDS011;5534;48.784;9.190;2022-11-20T09:10:36;0.90;;;0.90;;
10963;SDS011;5534;48.784;9.190;2022-11-20T09:13:04;2.50;;;1.10;;
10963;SDS011;5534;48.784;9.190;2022-11-20T09:15:30;1.00;;;0.90;;
10963;SDS011;5534;48.784;9.190;2022-11-20T09:18:00;1.47;;;0.93;;
10963;SDS011;5534;48.784;9.190;2022-11-20T09:20:29;1.13;;;1.00;;
10963;SDS011;5534;48.784;9.190;2022-11-20T09:22:56;1.63;;;0.90;;
10963;SDS011;5534;48.784;9.190;2022-11-20T09:25:22;1.20;;;0.83;;
10963;SDS011;5534;48.784;9.190;2022-11-20T09:27:54;0.93;;;0.80;;
10963;SDS011;5534;48.784;9.190;2022-11-20T09:30:23;4.70;;;1.40;;
10963;SDS011;5534;48.784;9.190;2022-11-20T09:32:49;0.70;;;0.70;;
10963;SDS011;5534;48.784;9.190;2022-11-20T09:35:15;0.80;;;0.60;;
10963;SDS011;5534;48.784;9.190;2022-11-20T09:37:41;1.10;;;0.70;;
10963;SDS011;5534;48.784;9.190;2022-11-20T09:40:08;1.00;;;0.70;;
10963;SDS011;5534;48.784;9.190;2022-11-20T09:43:07;0.90;;;0.70;;
10963;SDS011;5534;48.784;9.190;2022-11-20T09:56:10;0.50;;;0.50;;
10963;SDS011;5534;48.784;9.190;2022-11-20T09:58:47;1.37;;;0.57;;
10963;SDS011;5534;48.784;9.190;2022-11-20T10:01:16;0.43;;;0.43;;
10963;SDS011;5534;48.784;9.190;2022-11-20T10:06:21;0.60;;;0.40;;
10963;SDS011;5534;48.784;9.190;2022-11-20T10:09:03;2.00;;;0.60;;
10963;SDS011;5534;48.784;9.190;2022-11-20T10:11:45;0.80;;;0.60;;
10963;SDS011;5534;48.784;9.190;2022-11-20T10:17:12;0.67;;;0.63;;
10963;SDS011;5534;48.784;9.190;2022-11-20T10:31:36;0.63;;;0.63;;
10963;SDS011;5534;48.784;9.190;2022-11-20T10:34:08;0.70;;;0.60;;
10963;SDS011;5534;48.784;9.190;2022-11-20T10:36:49;1.00;;;0.80;;
10963;SDS011;5534;48.784;9.190;2022-11-20T10:39:29;1.27;;;0.90;;
10963;SDS011;5534;48.784;9.190;2022-11-20T10:42:29;1.00;;;0.70;;
10963;SDS011;5534;48.784;9.190;2022-11-20T10:45:02;1.40;;;0.90;;
10963;SDS011;5534;48.784;9.190;2022-11-20T10:47:45;1.83;;;0.90;;
10963;SDS011;5534;48.784;9.190;2022-11-20T10:50:13;0.87;;;0.70;;
10963;SDS011;5534;48.784;9.190;2022-11-20T10:53:05;0.90;;;0.77;;
10963;SDS011;5534;48.784;9.190;2022-11-20T10:55:56;1.10;;;0.77;;
10963;SDS011;5534;48.784;9.190;2022-11-20T11:01:15;1.23;;;0.70;;
10963;SDS011;5534;48.784;9.190;2022-11-20T11:03:43;0.60;;;0.60;;
10963;SDS011;5534;48.784;9.190;2022-11-20T11:09:34;0.70;;;0.70;;
10963;SDS011;5534;48.784;9.190;2022-11-20T11:12:10;1.43;;;0.90;;
10963;SDS011;5534;48.784;9.190;2022-11-20T11:14:47;2.20;;;1.00;;
10963;SDS011;5534;48.784;9.190;2022-11-20T11:17:33;1.90;;;0.80;;
10963;SDS011;5534;48.784;9.190;2022-11-20T11:25:57;0.80;;;0.80;;
10963;SDS011;5534;48.784;9.190;2022-11-20T11:28:25;1.07;;;0.90;;
10963;SDS011;5534;48.784;9.190;2022-11-20T11:30:53;1.63;;;1.13;;
10963;SDS011;5534;48.784;9.190;2022-11-20T11:33:23;1.13;;;1.03;;
10963;SDS011;5534;48.784;9.190;2022-11-20T11:35:55;2.00;;;1.80;;
10963;SDS011;5534;48.784;9.190;2022-11-20T11:40:57;2.90;;;1.17;;
10963;SDS011;5534;48.784;9.190;2022-11-20T11:43:25;1.13;;;0.87;;
10963;SDS011;5534;48.784;9.190;2022-11-20T11:46:23;1.13;;;1.03;;
10963;SDS011;5534;48.784;9.190;2022-11-20T11:52:15;1.10;;;0.90;;
10963;SDS011;5534;48.784;9.190;2022-11-20T12:00:02;2.93;;;1.17;;
10963;SDS011;5534;48.784;9.190;2022-11-20T12:05:02;2.93;;;1.00;;
10963;SDS011;5534;48.784;9.190;2022-11-20T12:07:43;1.03;;;0.93;;
10963;SDS011;5534;48.784;9.190;2022-11-20T12:10:23;2.43;;;1.07;;
10963;SDS011;5534;48.784;9.190;2022-11-20T12:15:56;2.50;;;0.90;;
10963;SDS011;5534;48.784;9.190;2022-11-20T12:18:22;1.20;;;0.90;;
10963;SDS011;5534;48.784;9.190;2022-11-20T12:23:38;1.20;;;0.93;;
10963;SDS011;5534;48.784;9.190;2022-11-20T12:28:55;1.10;;;0.80;;
10963;SDS011;5534;48.784;9.190;2022-11-20T12:31:43;1.70;;;0.83;;
10963;SDS011;5534;48.784;9.190;2022-11-20T12:39:31;1.80;;;0.93;;
10963;SDS011;5534;48.784;9.190;2022-11-20T12:47:46;2.00;;;0.90;;
10963;SDS011;5534;48.784;9.190;2022-11-20T12:53:05;0.83;;;0.70;;
10963;SDS011;5534;48.784;9.190;2022-11-20T13:01:00;1.43;;;0.90;;
10963;SDS011;5534;48.784;9.190;2022-11-20T13:04:06;3.30;;;0.90;;
10963;SDS011;5534;48.784;9.190;2022-11-20T13:06:40;1.20;;;0.87;;
10963;SDS011;5534;48.784;9.190;2022-11-20T13:09:12;1.80;;;0.77;;
10963;SDS011;5534;48.784;9.190;2022-11-20T13:11:45;1.00;;;0.70;;
10963;SDS011;5534;48.784;9.190;2022-11-20T13:14:37;2.30;;;0.60;;
10963;SDS011;5534;48.784;9.190;2022-11-20T13:17:18;0.70;;;0.53;;
10963;SDS011;5534;48.784;9.190;2022-11-20T13:20:05;1.33;;;0.60;;
10963;SDS011;5534;48.784;9.190;2022-11-20T13:30:49;2.33;;;0.70;;
10963;SDS011;5534;48.784;9.190;2022-11-20T13:33:32;1.43;;;0.50;;
10963;SDS011;5534;48.784;9.190;2022-11-20T13:38:49;3.37;;;0.80;;
10963;SDS011;5534;48.784;9.190;2022-11-20T13:41:26;1.77;;;0.77;;
10963;SDS011;5534;48.784;9.190;2022-11-20T13:43:54;3.53;;;0.70;;
10963;SDS011;5534;48.784;9.190;2022-11-20T13:46:34;1.13;;;0.70;;
10963;SDS011;5534;48.784;9.190;2022-11-20T13:49:05;1.60;;;0.77;;
10963;SDS011;5534;48.784;9.190;2022-11-20T13:51:40;2.30;;;0.60;;
10963;SDS011;5534;48.784;9.190;2022-11-20T14:02:13;1.00;;;0.60;;
10963;SDS011;5534;48.784;9.190;2022-11-20T14:04:42;1.70;;;0.90;;
10963;SDS011;5534;48.784;9.190;2022-11-20T14:07:11;3.13;;;0.90;;
10963;SDS011;5534;48.784;9.190;2022-11-20T14:09:37;1.33;;;0.70;;
10963;SDS011;5534;48.784;9.190;2022-11-20T14:12:15;1.07;;;0.60;;
10963;SDS011;5534;48.784;9.190;2022-11-20T14:14:49;0.80;;;0.60;;
10963;SDS011;5534;48.784;9.190;2022-11-20T14:19:47;2.13;;;1.30;;
10963;SDS011;5534;48.784;9.190;2022-11-20T14:22:19;0.97;;;0.60;;
10963;SDS011;5534;48.784;9.190;2022-11-20T14:24:48;1.33;;;0.90;;
10963;SDS011;5534;48.784;9.190;2022-11-20T14:27:16;1.77;;;0.80;;
10963;SDS011;5534;48.784;9.190;2022-11-20T14:29:44;2.07;;;1.10;;
10963;SDS011;5534;48.784;9.190;2022-11-20T14:32:14;1.03;;;0.83;;
10963;SDS011;5534;48.784;9.190;2022-11-20T14:34:43;2.57;;;1.00;;
10963;SDS011;5534;48.784;9.190;2022-11-20T14:37:11;1.10;;;0.80;;
10963;SDS011;5534;48.784;9.190;2022-11-20T14:39:42;1.43;;;0.90;;
10963;SDS011;5534;48.784;9.190;2022-11-20T14:42:23;1.53;;;1.07;;
10963;SDS011;5534;48.784;9.190;2022-11-20T14:44:50;2.50;;;1.10;;
10963;SDS011;5534;48.784;9.190;2022-11-20T14:47:21;3.53;;;1.00;;
10963;SDS011;5534;48.784;9.190;2022-11-20T14:49:50;3.10;;;1.10;;
10963;SDS011;5534;48.784;9.190;2022-11-20T14:52:21;1.60;;;0.93;;
10963;SDS011;5534;48.784;9.190;2022-11-20T14:54:49;6.80;;;0.90;;
10963;SDS011;5534;48.784;9.190;2022-11-20T14:57:20;1.57;;;1.03;;
10963;SDS011;5534;48.784;9.190;2022-11-20T15:02:46;3.43;;;1.40;;
10963;SDS011;5534;48.784;9.190;2022-11-20T15:05:14;5.17;;;1.87;;
10963;SDS011;5534;48.784;9.190;2022-11-20T15:07:46;3.20;;;1.43;;
10963;SDS011;5534;48.784;9.190;2022-11-20T15:12:57;8.40;;;1.50;;
10963;SDS011;5534;48.784;9.190;2022-11-20T15:18:12;1.90;;;0.90;;
10963;SDS011;5534;48.784;9.190;2022-11-20T15:20:47;1.73;;;1.07;;
10963;SDS011;5534;48.784;9.190;2022-11-20T15:23:15;1.10;;;1.00;;
10963;SDS011;5534;48.784;9.190;2022-11-20T15:25:43;1.20;;;1.00;;
10963;SDS011;5534;48.784;9.190;2022-11-20T15:28:16;2.27;;;1.03;;
10963;SDS011;5534;48.784;9.190;2022-11-20T15:30:47;2.37;;;0.90;;
10963;SDS011;5534;48.784;9.190;2022-11-20T15:33:14;1.17;;;0.80;;
10963;SDS011;5534;48.784;9.190;2022-11-20T15:35:41;1.60;;;1.10;;
10963;SDS011;5534;48.784;9.190;2022-11-20T15:38:08;1.10;;;0.83;;
10963;SDS011;5534;48.784;9.190;2022-11-20T15:40:34;2.67;;;1.00;;
10963;SDS011;5534;48.784;9.190;2022-11-20T15:43:00;3.20;;;0.83;;
10963;SDS011;5534;48.784;9.190;2022-11-20T15:45:29;1.63;;;1.17;;
10963;SDS011;5534;48.784;9.190;2022-11-20T15:48:02;2.47;;;1.20;;
10963;SDS011;5534;48.784;9.190;2022-11-20T15:50:41;2.00;;;0.93;;
10963;SDS011;5534;48.784;9.190;2022-11-20T15:53:15;2.50;;;1.37;;
10963;SDS011;5534;48.784;9.190;2022-11-20T15:55:41;4.23;;;1.80;;
10963;SDS011;5534;48.784;9.190;2022-11-20T15:58:07;1.63;;;1.30;;
10963;SDS011;5534;48.784;9.190;2022-11-20T16:00:33;3.43;;;1.70;;
10963;SDS011;5534;48.784;9.190;2022-11-20T16:02:58;2.83;;;1.60;;
10963;SDS011;5534;48.784;9.190;2022-11-20T16:05:27;2.00;;;1.40;;
10963;SDS011;5534;48.784;9.190;2022-11-20T16:07:53;2.77;;;1.57;;
10963;SDS011;5534;48.784;9.190;2022-11-20T16:10:19;1.60;;;1.20;;
10963;SDS011;5534;48.784;9.190;2022-11-20T16:12:45;2.63;;;1.30;;
10963;SDS011;5534;48.784;9.190;2022-11-20T16:15:29;2.00;;;1.23;;
10963;SDS011;5534;48.784;9.190;2022-11-20T16:18:12;2.67;;;1.37;;
10963;SDS011;5534;48.784;9.190;2022-11-20T16:20:39;3.00;;;1.10;;
10963;SDS011;5534;48.784;9.190;2022-11-20T16:23:05;1.93;;;1.30;;
10963;SDS011;5534;48.784;9.190;2022-11-20T16:25:31;2.83;;;1.10;;
10963;SDS011;5534;48.784;9.190;2022-11-20T16:27:57;1.10;;;1.00;;
10963;SDS011;5534;48.784;9.190;2022-11-20T16:30:23;1.67;;;1.03;;
10963;SDS011;5534;48.784;9.190;2022-11-20T16:32:49;1.63;;;1.20;;
10963;SDS011;5534;48.784;9.190;2022-11-20T16:35:15;2.73;;;1.40;;
10963;SDS011;5534;48.784;9.190;2022-11-20T16:37:41;2.83;;;1.67;;
10963;SDS011;5534;48.784;9.190;2022-11-20T16:40:08;2.27;;;1.50;;
10963;SDS011;5534;48.784;9.190;2022-11-20T16:42:35;1.90;;;1.43;;
10963;SDS011;5534;48.784;9.190;2022-11-20T16:45:02;2.43;;;1.23;;
10963;SDS011;5534;48.784;9.190;2022-11-20T16:47:32;1.93;;;1.30;;
10963;SDS011;5534;48.784;9.190;2022-11-20T16:49:58;2.20;;;1.53;;
10963;SDS011;5534;48.784;9.190;2022-11-20T16:52:24;2.07;;;1.50;;
10963;SDS011;5534;48.784;9.190;2022-11-20T16:54:50;3.47;;;1.37;;
10963;SDS011;5534;48.784;9.190;2022-11-20T16:57:16;3.37;;;1.50;;
10963;SDS011;5534;48.784;9.190;2022-11-20T16:59:42;2.90;;;1.70;;
10963;SDS011;5534;48.784;9.190;2022-11-20T17:02:08;1.60;;;1.30;;
10963;SDS011;5534;48.784;9.190;2022-11-20T17:04:35;3.07;;;1.80;;
10963;SDS011;5534;48.784;9.190;2022-11-20T17:07:01;3.17;;;1.70;;
10963;SDS011;5534;48.784;9.190;2022-11-20T17:09:27;4.40;;;1.97;;
10963;SDS011;5534;48.784;9.190;2022-11-20T17:11:53;2.80;;;1.77;;
10963;SDS011;5534;48.784;9.190;2022-11-20T17:14:19;3.57;;;1.77;;